Latest Weather Observations for Newman Airport

IDW60801

Issued at 6:43 am WST Wednesday 18 September 2019 (issued every 10 minutes, with the page automatically refreshed every 10 minutes)

About weather observations | Map of weather stations | Latest weather observations for WA | Other Formats
Station Details ID: 007176 Name: NEWMAN AERO Lat: -23.42 Lon: 119.80 Height: 524.0 m
Data from the previous 72 hours. | See also: Recent months at Newman Airport
Date/Time
WST
Temp
°C
App
Temp
°C
Dew
Point
°C
Rel
Hum
%
Delta-T
°C
Wind Press
QNH
hPa
Press
MSL
hPa
Rain since
9am
mm
Dir  Spd
km/h
Gust
km/h
Spd
kts
Gust
kts
18/06:30am 15.3 11.4 -6.9 21 8.3 SW 6 7 3 4 1019.2 1017.0 0.0
18/06:00am 14.7 10.5 -7.4 21 8.1 WSW 7 7 4 4 1018.9 1016.7 0.0
18/05:30am 15.5 11.3 -7.3 20 8.5 WSW 7 9 4 5 1018.7 1016.5 0.0
18/05:00am 14.7 10.5 -8.0 20 8.3 W 7 13 4 7 1018.5 1016.3 0.0
18/04:30am 15.6 11.4 -7.9 19 8.7 SW 7 9 4 5 1018.3 1016.0 0.0
18/04:00am 15.6 10.6 -7.9 19 8.7 SW 11 13 6 7 1018.1 1015.8 0.0
18/03:30am 15.4 10.7 -8.8 18 8.8 W 9 13 5 7 1017.9 1015.6 0.0
18/03:00am 16.3 10.9 -8.0 18 9.0 SW 13 13 7 7 1017.7 1015.4 0.0
18/02:30am 15.9 12.2 -9.1 17 9.0 SW 4 7 2 4 1017.9 1015.6 0.0
18/02:00am 17.1 12.9 -8.1 17 9.4 SW 7 7 4 4 1018.0 1015.7 0.0
18/01:30am 17.7 14.8 -8.4 16 9.8 CALM 0 0 0 0 1017.9 1015.6 0.0
18/01:00am 19.3 15.1 -7.9 15 10.5 SW 7 9 4 5 1017.8 1015.5 0.0
18/12:30am 19.2 14.6 -8.0 15 10.4 SW 9 11 5 6 1017.7 1015.4 0.0
18/12:00am 19.3 14.6 -8.8 14 10.6 SW 9 11 5 6 1017.7 1015.4 0.0
 
Date/Time
WST
Temp
°C
App
Temp
°C
Dew
Point
°C
Rel
Hum
%
Delta-T
°C
Wind Press
QNH
hPa
Press
MSL
hPa
Rain since
9am
mm
Dir  Spd
km/h
Gust
km/h
Spd
kts
Gust
kts
17/11:30pm 20.0 17.0 -9.2 13 11.0 CALM 0 0 0 0 1017.6 1015.3 0.0
17/11:00pm 21.1 17.8 -8.4 13 11.4 WSW 2 7 1 4 1017.7 1015.4 0.0
17/10:30pm 22.2 18.5 -8.5 12 12.0 NW 4 7 2 4 1017.6 1015.3 0.0
17/10:00pm 24.0 19.0 -8.2 11 12.9 N 11 13 6 7 1017.7 1015.4 0.0
17/09:30pm 23.8 20.9 -8.4 11 12.9 CALM 0 0 0 0 1017.7 1015.4 0.0
17/09:00pm 25.0 20.9 -8.7 10 13.5 SW 6 7 3 4 1017.7 1015.4 0.0
17/08:30pm 26.5 21.4 -8.9 9 14.4 WSW 11 13 6 7 1017.4 1015.1 0.0
17/08:00pm 26.0 21.3 -9.3 9 14.2 SW 9 13 5 7 1016.9 1014.7 0.0
17/07:30pm 27.2 22.6 -8.4 9 14.7 SW 9 11 5 6 1016.5 1014.2 0.0
17/07:00pm 29.2 24.2 -8.4 8 15.8 SW 11 13 6 7 1016.2 1013.9 0.0
17/06:30pm 30.4 26.1 -9.2 7 16.6 SSW 7 9 4 5 1015.8 1013.5 0.0
17/06:00pm 31.9 27.5 -10.1 6 17.6 W 7 9 4 5 1015.5 1013.2 0.0
17/05:30pm 34.2 29.4 -10.8 5 19.0 W 9 13 5 7 1015.1 1012.9 0.0
17/05:00pm 34.9 30.5 -10.3 5 19.3 NW 7 17 4 9 1014.9 1012.6 0.0
17/04:30pm 35.2 28.5 -10.1 5 19.5 WNW 19 28 10 15 1014.8 1012.5 0.0
17/04:00pm 35.8 30.7 -9.6 5 19.8 W 11 28 6 15 1014.7 1012.4 0.0
17/03:30pm 35.4 29.9 -9.9 5 19.6 NW 13 22 7 12 1014.5 1012.2 0.0
17/03:00pm 35.5 29.6 -9.9 5 19.6 NW 15 30 8 16 1014.6 1012.3 0.0
17/02:30pm 35.2 27.6 -10.1 5 19.5 NNW 24 37 13 20 1014.7 1012.4 0.0
17/02:00pm 35.1 28.8 -10.1 5 19.4 WNW 17 30 9 16 1015.1 1012.9 0.0
17/01:30pm 35.1 29.6 -10.1 5 19.4 NW 13 26 7 14 1015.4 1013.1 0.0
17/01:00pm 34.7 28.4 -10.4 5 19.2 WNW 17 28 9 15 1015.9 1013.6 0.0
17/12:30pm 34.3 27.8 -8.4 6 18.8 W 19 32 10 17 1016.3 1014.0 0.0
17/12:00pm 34.0 28.2 -8.6 6 18.6 WSW 15 32 8 17 1016.7 1014.5 0.0
17/11:30am 34.4 28.1 -10.6 5 19.1 WNW 17 33 9 18 1017.2 1015.0 0.0
17/11:00am 34.1 28.1 -10.8 5 18.9 NW 15 30 8 16 1017.7 1015.4 0.0
17/10:30am 33.6 27.4 -8.9 6 18.4 W 17 30 9 16 1017.9 1015.6 0.0
17/10:00am 33.1 26.9 -9.2 6 18.1 SW 17 24 9 13 1018.1 1015.8 0.0
17/09:30am 31.8 25.4 -6.5 8 17.0 WSW 19 26 10 14 1018.2 1015.9 0.0
17/09:00am 30.0 24.2 -4.9 10 15.7 WSW 17 24 9 13 1018.2 1015.9 0.0
17/08:30am 29.3 22.6 -4.2 11 15.2 WSW 22 33 12 18 1018.0 1015.7 0.0
17/08:00am 27.7 23.2 -3.2 13 14.0 SW 11 24 6 13 1017.8 1015.5 0.0
17/07:30am 22.9 20.1 -6.9 13 12.1 CALM 0 0 0 0 1017.7 1015.4 0.0
17/07:00am 18.6 14.5 -9.4 14 10.4 ESE 6 7 3 4 1017.4 1015.1 0.0
17/06:30am 15.5 12.4 -10.2 16 9.0 CALM 0 6 0 3 1017.0 1014.8 0.0
17/06:00am 15.6 11.2 -10.9 15 9.2 E 7 9 4 5 1016.9 1014.7 0.0
17/05:30am 14.2 9.9 -12.0 15 8.7 SE 6 6 3 3 1016.5 1014.2 0.0
17/05:00am 13.9 10.7 -12.3 15 8.6 CALM 0 0 0 0 1016.3 1014.0 0.0
17/04:30am 14.2 10.9 -12.9 14 8.8 CALM 0 0 0 0 1016.2 1013.9 0.0
17/04:00am 14.8 10.8 -13.3 13 9.1 ESE 4 9 2 5 1015.9 1013.6 0.0
17/03:30am 14.1 9.8 -12.1 15 8.7 S 6 9 3 5 1015.8 1013.5 0.0
17/03:00am 13.8 10.2 -12.3 15 8.6 SW 2 7 1 4 1015.8 1013.5 0.0
17/02:30am 14.3 9.9 -12.8 14 8.9 SW 6 7 3 4 1015.7 1013.4 0.0
17/02:00am 15.5 11.8 -13.7 12 9.5 SE 2 7 1 4 1015.7 1013.4 0.0
17/01:30am 16.2 11.7 -14.3 11 9.9 SE 6 7 3 4 1015.9 1013.6 0.0
17/01:00am 17.5 12.1 -13.2 11 10.4 SE 11 13 6 7 1016.2 1013.9 0.0
17/12:30am 16.8 12.2 -13.8 11 10.1 SSE 7 9 4 5 1016.2 1013.9 0.0
17/12:00am 18.3 13.7 -12.6 11 10.7 ESE 7 9 4 5 1016.3 1014.0 0.0
 
Date/Time
WST
Temp
°C
App
Temp
°C
Dew
Point
°C
Rel
Hum
%
Delta-T
°C
Wind Press
QNH
hPa
Press
MSL
hPa
Rain since
9am
mm
Dir  Spd
km/h
Gust
km/h
Spd
kts
Gust
kts
16/11:30pm 18.5 15.3 -12.5 11 10.8 CALM 0 7 0 4 1016.5 1014.2 0.0
16/11:00pm 18.0 14.1 -11.8 12 10.4 N 4 7 2 4 1016.6 1014.3 0.0
16/10:30pm 18.8 14.3 -11.2 12 10.7 N 7 9 4 5 1016.8 1014.6 0.0
16/10:00pm 19.2 15.6 -11.9 11 11.0 NNE 2 6 1 3 1016.9 1014.7 0.0
16/09:30pm 19.8 15.4 -13.9 9 11.6 ENE 6 6 3 3 1017.0 1014.8 0.0
16/09:00pm 21.2 17.6 -12.9 9 12.1 NE 2 6 1 3 1017.1 1014.9 0.0
16/08:30pm 22.6 18.3 -11.8 9 12.7 NE 6 7 3 4 1017.1 1014.9 0.0
16/08:00pm 24.9 20.6 -11.6 8 13.9 NE 6 7 3 4 1016.9 1014.7 0.0
16/07:30pm 26.8 22.3 -11.8 7 14.9 NNE 7 9 4 5 1016.7 1014.5 0.0
16/07:00pm 28.2 23.4 -10.8 7 15.6 NNE 9 11 5 6 1016.4 1014.1 0.0
16/06:30pm 29.3 24.8 -11.9 6 16.3 NE 7 11 4 6 1016.1 1013.8 0.0
16/06:00pm 30.9 25.9 -13.1 5 17.3 NNE 9 13 5 7 1015.9 1013.6 0.0
16/05:30pm 32.4 26.4 -12.0 5 18.1 NNE 15 19 8 10 1015.7 1013.4 0.0
16/05:00pm 33.2 27.4 -14.2 4 18.8 N 13 20 7 11 1015.5 1013.2 0.0
16/04:30pm 33.6 27.8 -13.9 4 19.0 N 13 20 7 11 1015.4 1013.1 0.0
16/04:00pm 33.9 28.5 -13.7 4 19.1 NW 11 19 6 10 1015.2 1013.0 0.0
16/03:30pm 34.0 29.0 -13.7 4 19.2 NE 9 17 5 9 1015.2 1013.0 0.0
16/03:00pm 33.6 27.8 -13.9 4 19.0 NW 13 24 7 13 1015.6 1013.3 0.0
16/02:30pm 33.7 27.5 -13.9 4 19.0 NE 15 35 8 19 1015.6 1013.3 0.0
16/02:00pm 33.8 27.6 -13.8 4 19.1 NNW 15 26 8 14 1015.8 1013.5 0.0
16/01:30pm 33.9 28.9 -13.7 4 19.1 E 9 17 5 9 1016.1 1013.8 0.0
16/01:00pm 33.1 26.3 -11.5 5 18.4 N 19 30 10 16 1016.5 1014.2 0.0
16/12:30pm 33.9 26.8 -13.7 4 19.1 NNE 20 32 11 17 1017.0 1014.8 0.0
16/12:00pm 32.7 25.7 -11.8 5 18.2 N 20 32 11 17 1017.7 1015.4 0.0
16/11:30am 33.1 28.2 -11.5 5 18.4 WSW 9 17 5 9 1018.2 1015.9 0.0
16/11:00am 32.6 28.1 -11.9 5 18.1 ENE 7 11 4 6 1018.8 1016.6 0.0
16/10:30am 32.0 27.5 -12.3 5 17.9 S 7 15 4 8 1019.1 1016.9 0.0
16/10:00am 30.0 24.5 -9.5 7 16.4 WSW 13 17 7 9 1019.5 1017.2 0.0
16/09:30am 28.7 22.4 -10.5 7 15.8 SW 17 24 9 13 1019.6 1017.3 0.0
16/09:00am 27.1 21.5 -11.6 7 15.0 SW 13 19 7 10 1019.7 1017.4 0.0
16/08:30am 25.0 20.7 -11.5 8 13.9 SSW 6 9 3 5 1019.8 1017.5 0.0
16/08:00am 21.5 16.8 -15.7 7 12.6 SSW 7 9 4 5 1019.6 1017.3 0.0
16/07:30am 18.9 14.7 -16.0 8 11.4 ESE 4 9 2 5 1019.3 1017.1 0.0
16/07:00am 16.0 12.5 -16.8 9 10.1 CALM 0 0 0 0 1019.0 1016.8 0.0
16/06:30am 12.3 8.9 -15.3 13 8.3 CALM 0 0 0 0 1018.6 1016.4 0.0
16/06:00am 11.8 7.2 -16.6 12 8.2 W 6 7 3 4 1018.4 1016.2 0.0
16/05:30am 11.9 6.7 -16.6 12 8.3 WSW 9 13 5 7 1018.3 1016.0 0.0
16/05:00am 12.2 7.0 -17.4 11 8.5 WSW 9 15 5 8 1018.1 1015.8 0.0
16/04:30am 10.8 6.0 -16.5 13 7.8 SW 7 13 4 7 1017.8 1015.5 0.0
16/04:00am 10.8 6.1 -15.6 14 7.7 WNW 7 11 4 6 1017.5 1015.2 0.0
16/03:30am 11.0 6.4 -16.3 13 7.9 SSW 6 7 3 4 1016.9 1014.7 0.0
16/03:00am 11.6 8.1 -16.8 12 8.2 CALM 0 4 0 2 1016.7 1014.5 0.0
16/02:30am 12.2 7.6 -16.3 12 8.4 SSE 6 6 3 3 1016.8 1014.6 0.0
16/02:00am 12.2 7.4 -16.3 12 8.4 SW 7 9 4 5 1017.1 1014.9 0.0
16/01:30am 12.9 8.2 -15.8 12 8.6 SSW 7 9 4 5 1017.2 1015.0 0.0
16/01:00am 13.4 8.3 -16.4 11 8.9 SW 9 9 5 5 1017.6 1015.3 0.0
16/12:30am 14.8 11.4 -16.5 10 9.5 CALM 0 0 0 0 1017.9 1015.6 0.0
16/12:00am 15.2 10.6 -17.4 9 9.8 SSE 6 7 3 4 1018.0 1015.7 0.0
 
Date/Time
WST
Temp
°C
App
Temp
°C
Dew
Point
°C
Rel
Hum
%
Delta-T
°C
Wind Press
QNH
hPa
Press
MSL
hPa
Rain since
9am
mm
Dir  Spd
km/h
Gust
km/h
Spd
kts
Gust
kts
15/11:30pm 16.5 11.9 -16.4 9 10.3 SE 6 7 3 4 1018.1 1015.8 0.0
15/11:00pm 16.8 12.2 -16.2 9 10.4 SSE 6 17 3 9 1018.1 1015.8 0.0
15/10:30pm 16.5 13.2 -14.0 11 10.0 CALM 0 0 0 0 1018.1 1015.8 0.0
15/10:00pm 18.0 13.9 -15.3 9 10.8 ENE 4 6 2 3 1018.2 1015.9 0.0
15/09:30pm 18.8 15.4 -14.7 9 11.2 CALM 0 0 0 0 1018.3 1016.0 0.0
15/09:00pm 19.1 15.7 -15.9 8 11.4 CALM 0 0 0 0 1018.4 1016.2 0.0
15/08:30pm 20.3 16.9 -16.6 7 12.1 CALM 0 0 0 0 1018.4 1016.2 0.0
15/08:00pm 21.4 18.0 -15.8 7 12.5 CALM 0 0 0 0 1018.4 1016.2 0.0
15/07:30pm 22.8 19.0 -16.6 6 13.3 NE 2 6 1 3 1018.1 1015.8 0.0
15/07:00pm 24.6 20.1 -15.3 6 14.1 NE 6 7 3 4 1017.9 1015.6 0.0
15/06:30pm 27.2 22.7 -15.7 5 15.6 N 6 7 3 4 1017.5 1015.2 0.0
15/06:00pm 30.5 25.4 -16.0 4 17.4 NNE 9 15 5 8 1017.2 1015.0 0.0
15/05:30pm 32.0 26.5 -15.0 4 18.1 N 11 17 6 9 1017.0 1014.8 0.0
15/05:00pm 32.6 26.6 -18.0 3 18.7 N 13 17 7 9 1016.8 1014.6 0.0
15/04:30pm 33.2 27.2 -17.6 3 19.0 NNE 13 24 7 13 1016.8 1014.6 0.0
15/04:00pm 33.1 26.9 -14.3 4 18.7 N 15 22 8 12 1016.5 1014.2 0.0
15/03:30pm 33.2 26.6 -14.2 4 18.8 NE 17 28 9 15 1016.6 1014.3 0.0
15/03:00pm 33.7 28.3 -13.9 4 19.0 ESE 11 24 6 13 1016.6 1014.3 0.0
15/02:30pm 33.5 28.9 -14.0 4 18.9 NE 7 17 4 9 1016.9 1014.7 0.0
15/02:00pm 32.9 27.1 -14.4 4 18.6 NE 13 24 7 13 1017.4 1015.1 0.0
15/01:30pm 33.1 26.2 -14.3 4 18.7 ENE 19 32 10 17 1017.8 1015.5 0.0
15/01:00pm 32.7 26.5 -14.5 4 18.5 ENE 15 26 8 14 1018.3 1016.0 0.0
15/12:30pm 32.6 26.0 -14.6 4 18.5 NE 17 28 9 15 1018.8 1016.6 0.0
15/12:00pm 32.0 25.8 -15.0 4 18.1 N 15 30 8 16 1019.2 1017.0 0.0
15/11:30am 32.3 26.1 -14.8 4 18.3 NNE 15 24 8 13 1019.6 1017.3 0.0
15/11:00am 31.8 24.6 -15.2 4 18.0 NNE 20 32 11 17 1019.8 1017.5 0.0
15/10:30am 31.7 26.2 -15.2 4 18.0 NE 11 17 6 9 1020.3 1018.1 0.0
15/10:00am 30.1 25.3 -16.3 4 17.1 NNE 7 13 4 7 1020.6 1018.4 0.0
15/09:30am 28.7 24.0 -14.6 5 16.3 NNE 7 13 4 7 1020.8 1018.6 0.0
15/09:00am 26.3 22.9 -16.3 5 15.1 CALM 0 4 0 2 1021.0 1018.8 0.0
15/08:30am 23.7 19.9 -16.0 6 13.7 NE 2 7 1 4 1021.1 1018.9 0.0
15/08:00am 21.2 17.8 -15.9 7 12.4 CALM 0 0 0 0 1021.1 1018.9 0.0
15/07:30am 17.3 13.4 -17.2 8 10.7 SSW 2 6 1 3 1021.0 1018.8 0.0
15/07:00am 13.9 9.2 -18.4 9 9.3 SSW 6 7 3 4 1020.8 1018.6 0.0

Other formats

Comma delimited format used in spreadsheet applications
http://www.bom.gov.au/fwo/IDW60801/IDW60801.94317.axf

JavaScript Object Notation format (JSON) in row-major order
http://www.bom.gov.au/fwo/IDW60801/IDW60801.94317.json

Data quality

Most of these data are generated automatically and are frequently updated. Quality checks on data are not normally performed. It is possible for incorrect values to appear. Refer to information at About Latest Weather Observations and please check the disclaimer before using these data.